Sign in

Advertise on goboko.com

You can reach many thousands of active pilots each month by advertising on goboko.com.

Please contact us for details.

Advertising

Info

Aviation weather - KDAA

METAR KDAA 010158Z AUTO 00000KT 10SM FEW060 BKN140 05/03 A2987 RMK AO2 SLP119 T00470034

TAF TAF KDAA 3101/0107 VRB06KT 9999 BKN030 OVC060 QNH3000INS BECMG 3113/3114 07006KT 9999 FEW020 BKN040 QNH2990INS TX15/3118Z TN04/3112Z LAST NO AMDS AFT 3101 NEXT 3109

ADDS Experimental. Do not use for flight-related decisions.

Javascript required. Ce site nécessite javascript